sensor_id;sensor_type;location;lat;lon;timestamp;P1;durP1;ratioP1;P2;durP2;ratioP2
71106;SDS011;58763;47.982;11.516;2022-09-17T00:01:20;5.40;;;2.33;;
71106;SDS011;58763;47.982;11.516;2022-09-17T00:03:50;4.75;;;2.00;;
71106;SDS011;58763;47.982;11.516;2022-09-17T00:08:43;5.85;;;2.40;;
71106;SDS011;58763;47.982;11.516;2022-09-17T00:11:09;6.10;;;2.80;;
71106;SDS011;58763;47.982;11.516;2022-09-17T00:13:38;4.95;;;2.30;;
71106;SDS011;58763;47.982;11.516;2022-09-17T00:16:05;5.13;;;2.97;;
71106;SDS011;58763;47.982;11.516;2022-09-17T00:18:31;5.70;;;2.55;;
71106;SDS011;58763;47.982;11.516;2022-09-17T00:20:57;5.82;;;2.70;;
71106;SDS011;58763;47.982;11.516;2022-09-17T00:23:23;4.75;;;2.28;;
71106;SDS011;58763;47.982;11.516;2022-09-17T00:25:48;6.55;;;2.63;;
71106;SDS011;58763;47.982;11.516;2022-09-17T00:28:14;4.15;;;2.60;;
71106;SDS011;58763;47.982;11.516;2022-09-17T00:30:40;7.45;;;3.15;;
71106;SDS011;58763;47.982;11.516;2022-09-17T00:33:07;6.38;;;3.05;;
71106;SDS011;58763;47.982;11.516;2022-09-17T00:35:35;4.90;;;2.80;;
71106;SDS011;58763;47.982;11.516;2022-09-17T00:38:00;5.13;;;2.78;;
71106;SDS011;58763;47.982;11.516;2022-09-17T00:40:26;4.57;;;2.83;;
71106;SDS011;58763;47.982;11.516;2022-09-17T00:42:51;5.68;;;2.92;;
71106;SDS011;58763;47.982;11.516;2022-09-17T00:45:17;5.47;;;3.00;;
71106;SDS011;58763;47.982;11.516;2022-09-17T00:47:44;4.75;;;2.72;;
71106;SDS011;58763;47.982;11.516;2022-09-17T00:50:35;8.95;;;2.85;;
71106;SDS011;58763;47.982;11.516;2022-09-17T00:53:05;5.97;;;2.55;;
71106;SDS011;58763;47.982;11.516;2022-09-17T00:55:35;6.00;;;3.10;;
71106;SDS011;58763;47.982;11.516;2022-09-17T00:58:05;11.15;;;3.28;;
71106;SDS011;58763;47.982;11.516;2022-09-17T01:00:32;5.60;;;2.95;;
71106;SDS011;58763;47.982;11.516;2022-09-17T01:02:58;5.82;;;2.78;;
71106;SDS011;58763;47.982;11.516;2022-09-17T01:05:30;5.70;;;2.83;;
71106;SDS011;58763;47.982;11.516;2022-09-17T01:08:16;7.47;;;3.47;;
71106;SDS011;58763;47.982;11.516;2022-09-17T01:13:56;5.50;;;2.83;;
71106;SDS011;58763;47.982;11.516;2022-09-17T01:16:54;5.53;;;3.35;;
71106;SDS011;58763;47.982;11.516;2022-09-17T01:22:23;5.03;;;2.90;;
71106;SDS011;58763;47.982;11.516;2022-09-17T01:36:15;4.82;;;2.67;;
71106;SDS011;58763;47.982;11.516;2022-09-17T01:38:53;4.45;;;2.58;;
71106;SDS011;58763;47.982;11.516;2022-09-17T01:44:16;4.63;;;2.30;;
71106;SDS011;58763;47.982;11.516;2022-09-17T01:46:46;5.53;;;2.72;;
71106;SDS011;58763;47.982;11.516;2022-09-17T01:49:17;4.60;;;2.47;;
71106;SDS011;58763;47.982;11.516;2022-09-17T01:51:46;4.82;;;2.80;;
71106;SDS011;58763;47.982;11.516;2022-09-17T01:54:18;4.43;;;2.58;;
71106;SDS011;58763;47.982;11.516;2022-09-17T01:56:55;5.07;;;2.25;;
71106;SDS011;58763;47.982;11.516;2022-09-17T02:01:55;4.70;;;2.28;;
71106;SDS011;58763;47.982;11.516;2022-09-17T02:04:35;4.20;;;2.10;;
71106;SDS011;58763;47.982;11.516;2022-09-17T02:07:09;5.30;;;2.25;;
71106;SDS011;58763;47.982;11.516;2022-09-17T02:09:45;4.57;;;2.15;;
71106;SDS011;58763;47.982;11.516;2022-09-17T02:12:27;4.30;;;1.90;;
71106;SDS011;58763;47.982;11.516;2022-09-17T02:14:59;4.28;;;1.83;;
71106;SDS011;58763;47.982;11.516;2022-09-17T02:17:35;5.05;;;2.33;;
71106;SDS011;58763;47.982;11.516;2022-09-17T02:20:04;4.88;;;2.05;;
71106;SDS011;58763;47.982;11.516;2022-09-17T02:25:26;3.95;;;1.80;;
71106;SDS011;58763;47.982;11.516;2022-09-17T02:28:00;4.50;;;2.20;;
71106;SDS011;58763;47.982;11.516;2022-09-17T02:30:26;5.73;;;2.20;;
71106;SDS011;58763;47.982;11.516;2022-09-17T02:32:53;5.03;;;2.10;;
71106;SDS011;58763;47.982;11.516;2022-09-17T02:35:19;5.50;;;2.35;;
71106;SDS011;58763;47.982;11.516;2022-09-17T02:37:45;4.18;;;2.30;;
71106;SDS011;58763;47.982;11.516;2022-09-17T02:40:11;4.30;;;2.30;;
71106;SDS011;58763;47.982;11.516;2022-09-17T02:48:05;5.13;;;2.90;;
71106;SDS011;58763;47.982;11.516;2022-09-17T02:50:44;5.28;;;2.90;;
71106;SDS011;58763;47.982;11.516;2022-09-17T02:53:42;6.05;;;2.75;;
71106;SDS011;58763;47.982;11.516;2022-09-17T02:59:28;4.47;;;2.42;;
71106;SDS011;58763;47.982;11.516;2022-09-17T03:02:03;6.55;;;2.80;;
71106;SDS011;58763;47.982;11.516;2022-09-17T03:04:37;5.07;;;3.00;;
71106;SDS011;58763;47.982;11.516;2022-09-17T03:07:04;6.63;;;2.80;;
71106;SDS011;58763;47.982;11.516;2022-09-17T03:09:33;6.10;;;2.85;;
71106;SDS011;58763;47.982;11.516;2022-09-17T03:11:59;9.07;;;3.30;;
71106;SDS011;58763;47.982;11.516;2022-09-17T03:14:26;5.22;;;3.00;;
71106;SDS011;58763;47.982;11.516;2022-09-17T03:16:51;6.63;;;3.30;;
71106;SDS011;58763;47.982;11.516;2022-09-17T03:19:17;5.43;;;3.50;;
71106;SDS011;58763;47.982;11.516;2022-09-17T03:21:42;5.60;;;2.75;;
71106;SDS011;58763;47.982;11.516;2022-09-17T03:24:08;5.00;;;3.10;;
71106;SDS011;58763;47.982;11.516;2022-09-17T03:26:36;6.38;;;2.80;;
71106;SDS011;58763;47.982;11.516;2022-09-17T03:29:02;4.80;;;3.28;;
71106;SDS011;58763;47.982;11.516;2022-09-17T03:31:27;8.02;;;3.70;;
71106;SDS011;58763;47.982;11.516;2022-09-17T03:33:53;6.35;;;3.58;;
71106;SDS011;58763;47.982;11.516;2022-09-17T03:36:19;6.05;;;3.63;;
71106;SDS011;58763;47.982;11.516;2022-09-17T03:38:44;4.85;;;3.00;;
71106;SDS011;58763;47.982;11.516;2022-09-17T03:41:10;6.50;;;2.97;;
71106;SDS011;58763;47.982;11.516;2022-09-17T03:43:36;6.28;;;3.17;;
71106;SDS011;58763;47.982;11.516;2022-09-17T03:46:01;6.18;;;3.00;;
71106;SDS011;58763;47.982;11.516;2022-09-17T03:48:27;6.65;;;3.03;;
71106;SDS011;58763;47.982;11.516;2022-09-17T03:50:53;5.80;;;3.05;;
71106;SDS011;58763;47.982;11.516;2022-09-17T03:53:19;5.80;;;2.78;;
71106;SDS011;58763;47.982;11.516;2022-09-17T03:55:44;5.30;;;2.55;;
71106;SDS011;58763;47.982;11.516;2022-09-17T03:58:10;5.32;;;3.15;;
71106;SDS011;58763;47.982;11.516;2022-09-17T04:00:36;5.22;;;3.00;;
71106;SDS011;58763;47.982;11.516;2022-09-17T04:03:04;4.70;;;2.85;;
71106;SDS011;58763;47.982;11.516;2022-09-17T04:05:30;5.38;;;2.83;;
71106;SDS011;58763;47.982;11.516;2022-09-17T04:07:55;4.93;;;3.20;;
71106;SDS011;58763;47.982;11.516;2022-09-17T04:10:21;5.50;;;3.10;;
71106;SDS011;58763;47.982;11.516;2022-09-17T04:12:47;6.50;;;3.63;;
71106;SDS011;58763;47.982;11.516;2022-09-17T04:15:13;5.10;;;3.63;;
71106;SDS011;58763;47.982;11.516;2022-09-17T04:17:38;6.63;;;3.90;;
71106;SDS011;58763;47.982;11.516;2022-09-17T04:20:04;6.35;;;3.67;;
71106;SDS011;58763;47.982;11.516;2022-09-17T04:22:31;6.05;;;3.65;;
71106;SDS011;58763;47.982;11.516;2022-09-17T04:24:56;7.78;;;3.80;;
71106;SDS011;58763;47.982;11.516;2022-09-17T04:27:22;6.22;;;3.70;;
71106;SDS011;58763;47.982;11.516;2022-09-17T04:29:48;7.32;;;3.90;;
71106;SDS011;58763;47.982;11.516;2022-09-17T04:32:13;6.50;;;3.38;;
71106;SDS011;58763;47.982;11.516;2022-09-17T04:34:39;5.53;;;3.65;;
71106;SDS011;58763;47.982;11.516;2022-09-17T04:37:05;5.57;;;3.70;;
71106;SDS011;58763;47.982;11.516;2022-09-17T04:39:30;6.13;;;3.47;;
71106;SDS011;58763;47.982;11.516;2022-09-17T04:41:56;5.93;;;3.15;;
71106;SDS011;58763;47.982;11.516;2022-09-17T04:44:21;5.95;;;3.47;;
71106;SDS011;58763;47.982;11.516;2022-09-17T04:46:47;4.85;;;3.30;;
71106;SDS011;58763;47.982;11.516;2022-09-17T04:49:12;8.05;;;3.58;;
71106;SDS011;58763;47.982;11.516;2022-09-17T04:51:38;6.70;;;3.47;;
71106;SDS011;58763;47.982;11.516;2022-09-17T04:54:03;6.18;;;3.35;;
71106;SDS011;58763;47.982;11.516;2022-09-17T04:56:29;6.38;;;3.40;;
71106;SDS011;58763;47.982;11.516;2022-09-17T04:58:54;4.20;;;2.80;;
71106;SDS011;58763;47.982;11.516;2022-09-17T05:01:20;5.50;;;3.47;;
71106;SDS011;58763;47.982;11.516;2022-09-17T05:03:45;6.22;;;2.92;;
71106;SDS011;58763;47.982;11.516;2022-09-17T05:06:11;6.40;;;3.13;;
71106;SDS011;58763;47.982;11.516;2022-09-17T05:08:36;5.10;;;2.97;;
71106;SDS011;58763;47.982;11.516;2022-09-17T05:11:02;4.15;;;2.95;;
71106;SDS011;58763;47.982;11.516;2022-09-17T05:13:28;6.70;;;3.40;;
71106;SDS011;58763;47.982;11.516;2022-09-17T05:15:54;6.28;;;3.35;;
71106;SDS011;58763;47.982;11.516;2022-09-17T05:18:23;5.80;;;3.05;;
71106;SDS011;58763;47.982;11.516;2022-09-17T05:20:50;5.75;;;3.38;;
71106;SDS011;58763;47.982;11.516;2022-09-17T05:23:15;6.07;;;3.35;;
71106;SDS011;58763;47.982;11.516;2022-09-17T05:25:42;6.13;;;3.30;;
71106;SDS011;58763;47.982;11.516;2022-09-17T05:28:07;10.50;;;3.22;;
71106;SDS011;58763;47.982;11.516;2022-09-17T05:30:33;5.50;;;3.22;;
71106;SDS011;58763;47.982;11.516;2022-09-17T05:32:59;7.25;;;3.47;;
71106;SDS011;58763;47.982;11.516;2022-09-17T05:35:25;7.93;;;3.42;;
71106;SDS011;58763;47.982;11.516;2022-09-17T05:37:55;4.88;;;2.90;;
71106;SDS011;58763;47.982;11.516;2022-09-17T05:40:21;6.55;;;3.30;;
71106;SDS011;58763;47.982;11.516;2022-09-17T05:42:47;7.20;;;3.30;;
71106;SDS011;58763;47.982;11.516;2022-09-17T05:45:12;4.78;;;3.40;;
71106;SDS011;58763;47.982;11.516;2022-09-17T05:47:38;6.68;;;3.42;;
71106;SDS011;58763;47.982;11.516;2022-09-17T05:50:03;6.13;;;2.70;;
71106;SDS011;58763;47.982;11.516;2022-09-17T05:52:29;4.93;;;3.08;;
71106;SDS011;58763;47.982;11.516;2022-09-17T05:54:55;4.97;;;3.00;;
71106;SDS011;58763;47.982;11.516;2022-09-17T05:57:20;4.93;;;3.00;;
71106;SDS011;58763;47.982;11.516;2022-09-17T05:59:46;6.53;;;3.20;;
71106;SDS011;58763;47.982;11.516;2022-09-17T06:02:14;5.95;;;3.10;;
71106;SDS011;58763;47.982;11.516;2022-09-17T06:04:40;6.38;;;3.05;;
71106;SDS011;58763;47.982;11.516;2022-09-17T06:07:06;5.85;;;3.05;;
71106;SDS011;58763;47.982;11.516;2022-09-17T06:09:33;6.38;;;3.40;;
71106;SDS011;58763;47.982;11.516;2022-09-17T06:12:00;7.13;;;3.10;;
71106;SDS011;58763;47.982;11.516;2022-09-17T06:14:26;5.28;;;3.15;;
71106;SDS011;58763;47.982;11.516;2022-09-17T06:16:51;5.15;;;2.90;;
71106;SDS011;58763;47.982;11.516;2022-09-17T06:19:17;4.60;;;2.90;;
71106;SDS011;58763;47.982;11.516;2022-09-17T06:21:43;4.60;;;2.75;;
71106;SDS011;58763;47.982;11.516;2022-09-17T06:24:09;8.57;;;3.42;;
71106;SDS011;58763;47.982;11.516;2022-09-17T06:26:34;7.65;;;3.03;;
71106;SDS011;58763;47.982;11.516;2022-09-17T06:29:00;6.05;;;3.08;;
71106;SDS011;58763;47.982;11.516;2022-09-17T06:31:25;4.93;;;1.85;;
71106;SDS011;58763;47.982;11.516;2022-09-17T06:33:51;2.70;;;1.48;;
71106;SDS011;58763;47.982;11.516;2022-09-17T06:36:17;2.72;;;1.40;;
71106;SDS011;58763;47.982;11.516;2022-09-17T06:38:44;3.80;;;1.55;;
71106;SDS011;58763;47.982;11.516;2022-09-17T06:41:09;4.90;;;1.42;;
71106;SDS011;58763;47.982;11.516;2022-09-17T06:43:36;2.97;;;1.30;;
71106;SDS011;58763;47.982;11.516;2022-09-17T06:46:03;3.47;;;1.15;;
71106;SDS011;58763;47.982;11.516;2022-09-17T06:48:33;3.47;;;1.10;;
71106;SDS011;58763;47.982;11.516;2022-09-17T06:51:01;3.78;;;1.33;;
71106;SDS011;58763;47.982;11.516;2022-09-17T06:53:31;5.63;;;1.50;;
71106;SDS011;58763;47.982;11.516;2022-09-17T06:55:57;3.63;;;1.10;;
71106;SDS011;58763;47.982;11.516;2022-09-17T06:58:24;3.08;;;1.30;;
71106;SDS011;58763;47.982;11.516;2022-09-17T07:00:51;2.20;;;1.00;;
71106;SDS011;58763;47.982;11.516;2022-09-17T07:03:17;4.38;;;1.40;;
71106;SDS011;58763;47.982;11.516;2022-09-17T07:05:43;2.92;;;1.48;;
71106;SDS011;58763;47.982;11.516;2022-09-17T07:08:09;3.17;;;1.50;;
71106;SDS011;58763;47.982;11.516;2022-09-17T07:10:35;2.50;;;1.38;;
71106;SDS011;58763;47.982;11.516;2022-09-17T07:13:01;2.00;;;1.10;;
71106;SDS011;58763;47.982;11.516;2022-09-17T07:15:26;2.65;;;1.33;;
71106;SDS011;58763;47.982;11.516;2022-09-17T07:17:52;2.53;;;1.17;;
71106;SDS011;58763;47.982;11.516;2022-09-17T07:20:17;2.47;;;1.10;;
71106;SDS011;58763;47.982;11.516;2022-09-17T07:22:43;3.83;;;1.58;;
71106;SDS011;58763;47.982;11.516;2022-09-17T07:25:09;3.17;;;1.30;;
71106;SDS011;58763;47.982;11.516;2022-09-17T07:27:35;3.60;;;1.13;;
71106;SDS011;58763;47.982;11.516;2022-09-17T07:30:00;4.68;;;1.65;;
71106;SDS011;58763;47.982;11.516;2022-09-17T07:32:28;5.88;;;1.80;;
71106;SDS011;58763;47.982;11.516;2022-09-17T07:34:54;5.07;;;1.85;;
71106;SDS011;58763;47.982;11.516;2022-09-17T07:37:20;4.07;;;1.85;;
71106;SDS011;58763;47.982;11.516;2022-09-17T07:39:45;6.90;;;2.60;;
71106;SDS011;58763;47.982;11.516;2022-09-17T07:42:11;5.32;;;2.15;;
71106;SDS011;58763;47.982;11.516;2022-09-17T07:44:36;5.38;;;2.67;;
71106;SDS011;58763;47.982;11.516;2022-09-17T07:47:02;8.07;;;3.15;;
71106;SDS011;58763;47.982;11.516;2022-09-17T07:49:28;8.40;;;3.00;;
71106;SDS011;58763;47.982;11.516;2022-09-17T07:51:53;7.18;;;3.22;;
71106;SDS011;58763;47.982;11.516;2022-09-17T07:54:19;7.68;;;3.10;;
71106;SDS011;58763;47.982;11.516;2022-09-17T07:56:44;5.18;;;3.10;;
71106;SDS011;58763;47.982;11.516;2022-09-17T07:59:10;7.50;;;2.75;;
71106;SDS011;58763;47.982;11.516;2022-09-17T08:01:36;6.22;;;2.78;;
71106;SDS011;58763;47.982;11.516;2022-09-17T08:04:02;6.10;;;3.03;;
71106;SDS011;58763;47.982;11.516;2022-09-17T08:06:28;6.90;;;2.70;;
71106;SDS011;58763;47.982;11.516;2022-09-17T08:08:54;4.88;;;2.60;;
71106;SDS011;58763;47.982;11.516;2022-09-17T08:11:21;6.65;;;2.50;;
71106;SDS011;58763;47.982;11.516;2022-09-17T08:13:49;5.28;;;2.50;;
71106;SDS011;58763;47.982;11.516;2022-09-17T08:16:16;6.28;;;2.80;;
71106;SDS011;58763;47.982;11.516;2022-09-17T08:18:43;6.40;;;2.88;;
71106;SDS011;58763;47.982;11.516;2022-09-17T08:21:10;8.10;;;2.80;;
71106;SDS011;58763;47.982;11.516;2022-09-17T08:23:37;5.53;;;2.40;;
71106;SDS011;58763;47.982;11.516;2022-09-17T08:26:04;4.65;;;2.08;;
71106;SDS011;58763;47.982;11.516;2022-09-17T08:28:33;5.93;;;2.40;;
71106;SDS011;58763;47.982;11.516;2022-09-17T08:31:03;3.90;;;1.70;;
71106;SDS011;58763;47.982;11.516;2022-09-17T08:33:31;5.05;;;2.00;;
71106;SDS011;58763;47.982;11.516;2022-09-17T08:35:57;4.82;;;1.80;;
71106;SDS011;58763;47.982;11.516;2022-09-17T08:38:24;3.58;;;1.70;;
71106;SDS011;58763;47.982;11.516;2022-09-17T08:46:23;4.07;;;2.00;;
71106;SDS011;58763;47.982;11.516;2022-09-17T08:48:52;4.18;;;1.88;;
71106;SDS011;58763;47.982;11.516;2022-09-17T08:56:42;4.93;;;2.05;;
71106;SDS011;58763;47.982;11.516;2022-09-17T09:06:54;4.55;;;1.73;;
71106;SDS011;58763;47.982;11.516;2022-09-17T09:09:33;3.72;;;1.60;;
71106;SDS011;58763;47.982;11.516;2022-09-17T09:12:10;5.10;;;1.75;;
71106;SDS011;58763;47.982;11.516;2022-09-17T09:14:48;4.60;;;1.60;;
71106;SDS011;58763;47.982;11.516;2022-09-17T09:17:20;6.75;;;1.80;;
71106;SDS011;58763;47.982;11.516;2022-09-17T09:19:50;5.15;;;1.52;;
71106;SDS011;58763;47.982;11.516;2022-09-17T09:27:31;3.40;;;1.40;;
71106;SDS011;58763;47.982;11.516;2022-09-17T09:30:04;4.47;;;1.60;;
71106;SDS011;58763;47.982;11.516;2022-09-17T09:37:45;4.22;;;1.75;;
71106;SDS011;58763;47.982;11.516;2022-09-17T09:40:25;5.60;;;1.75;;
71106;SDS011;58763;47.982;11.516;2022-09-17T09:42:59;4.70;;;1.65;;
71106;SDS011;58763;47.982;11.516;2022-09-17T09:48:31;6.43;;;1.65;;
71106;SDS011;58763;47.982;11.516;2022-09-17T09:51:14;7.95;;;2.10;;
71106;SDS011;58763;47.982;11.516;2022-09-17T09:56:27;4.78;;;1.45;;
71106;SDS011;58763;47.982;11.516;2022-09-17T09:59:11;5.93;;;1.73;;
71106;SDS011;58763;47.982;11.516;2022-09-17T10:01:38;6.25;;;1.70;;
71106;SDS011;58763;47.982;11.516;2022-09-17T10:04:22;6.10;;;1.80;;
71106;SDS011;58763;47.982;11.516;2022-09-17T10:06:51;4.78;;;1.63;;
71106;SDS011;58763;47.982;11.516;2022-09-17T10:09:19;6.75;;;1.80;;
71106;SDS011;58763;47.982;11.516;2022-09-17T10:12:00;6.28;;;1.58;;
71106;SDS011;58763;47.982;11.516;2022-09-17T10:14:28;6.88;;;1.63;;
71106;SDS011;58763;47.982;11.516;2022-09-17T10:17:14;4.55;;;1.60;;
71106;SDS011;58763;47.982;11.516;2022-09-17T10:19:42;4.78;;;1.48;;
71106;SDS011;58763;47.982;11.516;2022-09-17T10:22:25;6.63;;;1.50;;
71106;SDS011;58763;47.982;11.516;2022-09-17T10:25:00;4.03;;;1.52;;
71106;SDS011;58763;47.982;11.516;2022-09-17T10:27:26;5.32;;;1.50;;
71106;SDS011;58763;47.982;11.516;2022-09-17T10:29:57;4.70;;;1.52;;
71106;SDS011;58763;47.982;11.516;2022-09-17T10:32:39;5.28;;;1.95;;
71106;SDS011;58763;47.982;11.516;2022-09-17T10:37:49;6.68;;;1.42;;
71106;SDS011;58763;47.982;11.516;2022-09-17T10:42:44;7.40;;;1.50;;
71106;SDS011;58763;47.982;11.516;2022-09-17T10:45:29;4.40;;;1.60;;
71106;SDS011;58763;47.982;11.516;2022-09-17T10:47:57;4.07;;;1.30;;
71106;SDS011;58763;47.982;11.516;2022-09-17T10:50:33;4.53;;;1.27;;
71106;SDS011;58763;47.982;11.516;2022-09-17T10:53:01;4.72;;;1.38;;
71106;SDS011;58763;47.982;11.516;2022-09-17T10:55:36;5.38;;;1.45;;
71106;SDS011;58763;47.982;11.516;2022-09-17T11:00:47;5.07;;;1.63;;
71106;SDS011;58763;47.982;11.516;2022-09-17T11:03:46;4.28;;;1.77;;
71106;SDS011;58763;47.982;11.516;2022-09-17T11:06:25;5.88;;;1.75;;
71106;SDS011;58763;47.982;11.516;2022-09-17T11:09:05;7.72;;;1.65;;
71106;SDS011;58763;47.982;11.516;2022-09-17T11:12:00;7.53;;;1.85;;
71106;SDS011;58763;47.982;11.516;2022-09-17T11:20:16;4.25;;;1.83;;
71106;SDS011;58763;47.982;11.516;2022-09-17T11:23:58;4.53;;;1.70;;
71106;SDS011;58763;47.982;11.516;2022-09-17T11:31:49;2.25;;;0.75;;
71106;SDS011;58763;47.982;11.516;2022-09-17T11:37:11;3.73;;;0.90;;
71106;SDS011;58763;47.982;11.516;2022-09-17T11:39:44;3.92;;;0.80;;
71106;SDS011;58763;47.982;11.516;2022-09-17T11:42:17;2.92;;;0.70;;
71106;SDS011;58763;47.982;11.516;2022-09-17T11:47:20;2.83;;;0.82;;
71106;SDS011;58763;47.982;11.516;2022-09-17T11:49:59;2.40;;;0.80;;
71106;SDS011;58763;47.982;11.516;2022-09-17T11:52:27;3.03;;;0.90;;
71106;SDS011;58763;47.982;11.516;2022-09-17T11:55:43;3.67;;;0.93;;
71106;SDS011;58763;47.982;11.516;2022-09-17T11:58:00;5.57;;;1.15;;
71106;SDS011;58763;47.982;11.516;2022-09-17T12:00:31;4.97;;;1.95;;
71106;SDS011;58763;47.982;11.516;2022-09-17T12:05:40;2.90;;;1.20;;
71106;SDS011;58763;47.982;11.516;2022-09-17T12:08:21;2.83;;;1.30;;
71106;SDS011;58763;47.982;11.516;2022-09-17T12:13:44;3.97;;;1.60;;
71106;SDS011;58763;47.982;11.516;2022-09-17T12:16:15;3.10;;;1.30;;
71106;SDS011;58763;47.982;11.516;2022-09-17T12:18:50;4.63;;;1.48;;
71106;SDS011;58763;47.982;11.516;2022-09-17T12:21:25;2.95;;;1.10;;
71106;SDS011;58763;47.982;11.516;2022-09-17T12:54:23;3.05;;;1.20;;
71106;SDS011;58763;47.982;11.516;2022-09-17T12:56:56;3.72;;;1.10;;
71106;SDS011;58763;47.982;11.516;2022-09-17T12:59:33;4.25;;;1.30;;
71106;SDS011;58763;47.982;11.516;2022-09-17T13:02:15;3.85;;;1.17;;
71106;SDS011;58763;47.982;11.516;2022-09-17T13:12:38;2.45;;;1.10;;
71106;SDS011;58763;47.982;11.516;2022-09-17T13:20:25;2.63;;;1.00;;
71106;SDS011;58763;47.982;11.516;2022-09-17T13:22:56;2.97;;;1.00;;
71106;SDS011;58763;47.982;11.516;2022-09-17T13:25:22;2.70;;;0.98;;
71106;SDS011;58763;47.982;11.516;2022-09-17T13:27:49;4.15;;;1.10;;
71106;SDS011;58763;47.982;11.516;2022-09-17T13:30:32;2.83;;;1.00;;
71106;SDS011;58763;47.982;11.516;2022-09-17T13:42:19;4.07;;;1.20;;
71106;SDS011;58763;47.982;11.516;2022-09-17T13:44:49;4.53;;;1.08;;
71106;SDS011;58763;47.982;11.516;2022-09-17T13:47:29;3.00;;;1.00;;
71106;SDS011;58763;47.982;11.516;2022-09-17T13:49:58;2.88;;;0.88;;
71106;SDS011;58763;47.982;11.516;2022-09-17T13:54:59;3.72;;;1.00;;
71106;SDS011;58763;47.982;11.516;2022-09-17T13:57:26;3.72;;;0.80;;
71106;SDS011;58763;47.982;11.516;2022-09-17T13:59:56;4.03;;;0.95;;
71106;SDS011;58763;47.982;11.516;2022-09-17T14:04:50;3.05;;;0.93;;
71106;SDS011;58763;47.982;11.516;2022-09-17T14:09:52;4.75;;;1.20;;
71106;SDS011;58763;47.982;11.516;2022-09-17T14:15:02;4.07;;;1.52;;
71106;SDS011;58763;47.982;11.516;2022-09-17T14:17:47;3.35;;;1.30;;
71106;SDS011;58763;47.982;11.516;2022-09-17T14:20:20;4.45;;;1.33;;
71106;SDS011;58763;47.982;11.516;2022-09-17T14:23:20;3.35;;;0.90;;
71106;SDS011;58763;47.982;11.516;2022-09-17T14:25:41;2.50;;;0.90;;
71106;SDS011;58763;47.982;11.516;2022-09-17T14:28:24;2.88;;;1.10;;
71106;SDS011;58763;47.982;11.516;2022-09-17T14:30:56;2.97;;;0.82;;
71106;SDS011;58763;47.982;11.516;2022-09-17T14:33:24;3.33;;;0.90;;
71106;SDS011;58763;47.982;11.516;2022-09-17T14:35:55;3.35;;;0.80;;
71106;SDS011;58763;47.982;11.516;2022-09-17T14:38:31;2.83;;;0.80;;
71106;SDS011;58763;47.982;11.516;2022-09-17T14:46:22;2.95;;;1.00;;
71106;SDS011;58763;47.982;11.516;2022-09-17T14:48:50;2.17;;;0.90;;
71106;SDS011;58763;47.982;11.516;2022-09-17T14:53:41;2.60;;;1.00;;
71106;SDS011;58763;47.982;11.516;2022-09-17T14:56:08;4.03;;;1.10;;
71106;SDS011;58763;47.982;11.516;2022-09-17T14:58:38;1.77;;;0.77;;
71106;SDS011;58763;47.982;11.516;2022-09-17T15:01:19;4.03;;;0.80;;
71106;SDS011;58763;47.982;11.516;2022-09-17T15:06:20;3.58;;;0.90;;
71106;SDS011;58763;47.982;11.516;2022-09-17T15:08:46;3.03;;;0.80;;
71106;SDS011;58763;47.982;11.516;2022-09-17T15:11:12;3.15;;;0.90;;
71106;SDS011;58763;47.982;11.516;2022-09-17T15:13:51;2.30;;;0.82;;
71106;SDS011;58763;47.982;11.516;2022-09-17T15:18:56;3.22;;;0.95;;
71106;SDS011;58763;47.982;11.516;2022-09-17T15:21:33;2.25;;;0.60;;
71106;SDS011;58763;47.982;11.516;2022-09-17T15:26:53;2.97;;;0.43;;
71106;SDS011;58763;47.982;11.516;2022-09-17T15:29:23;0.90;;;0.50;;
71106;SDS011;58763;47.982;11.516;2022-09-17T15:31:52;2.80;;;0.50;;
71106;SDS011;58763;47.982;11.516;2022-09-17T15:34:18;2.33;;;0.50;;
71106;SDS011;58763;47.982;11.516;2022-09-17T15:39:51;2.58;;;0.60;;
71106;SDS011;58763;47.982;11.516;2022-09-17T15:42:20;2.33;;;0.68;;
71106;SDS011;58763;47.982;11.516;2022-09-17T15:44:50;2.40;;;0.50;;
71106;SDS011;58763;47.982;11.516;2022-09-17T15:50:21;1.88;;;0.80;;
71106;SDS011;58763;47.982;11.516;2022-09-17T15:52:48;2.63;;;0.80;;
71106;SDS011;58763;47.982;11.516;2022-09-17T15:55:28;2.72;;;0.57;;
71106;SDS011;58763;47.982;11.516;2022-09-17T15:57:56;2.22;;;0.63;;
71106;SDS011;58763;47.982;11.516;2022-09-17T16:00:23;2.63;;;0.60;;
71106;SDS011;58763;47.982;11.516;2022-09-17T16:02:49;2.92;;;0.75;;
71106;SDS011;58763;47.982;11.516;2022-09-17T16:07:41;2.33;;;0.68;;
71106;SDS011;58763;47.982;11.516;2022-09-17T16:10:08;1.45;;;0.60;;
71106;SDS011;58763;47.982;11.516;2022-09-17T16:12:35;1.30;;;0.55;;
71106;SDS011;58763;47.982;11.516;2022-09-17T16:15:01;2.42;;;0.63;;
71106;SDS011;58763;47.982;11.516;2022-09-17T16:19:58;2.20;;;0.80;;
71106;SDS011;58763;47.982;11.516;2022-09-17T16:22:24;2.58;;;0.90;;
71106;SDS011;58763;47.982;11.516;2022-09-17T16:24:51;5.00;;;0.88;;
71106;SDS011;58763;47.982;11.516;2022-09-17T16:27:19;2.50;;;0.88;;
71106;SDS011;58763;47.982;11.516;2022-09-17T16:29:48;1.83;;;0.70;;
71106;SDS011;58763;47.982;11.516;2022-09-17T16:32:16;3.63;;;0.90;;
71106;SDS011;58763;47.982;11.516;2022-09-17T16:34:41;2.38;;;0.70;;
71106;SDS011;58763;47.982;11.516;2022-09-17T16:37:08;1.52;;;0.70;;
71106;SDS011;58763;47.982;11.516;2022-09-17T16:39:34;3.22;;;0.98;;
71106;SDS011;58763;47.982;11.516;2022-09-17T16:41:59;3.13;;;0.70;;
71106;SDS011;58763;47.982;11.516;2022-09-17T16:44:25;3.33;;;1.05;;
71106;SDS011;58763;47.982;11.516;2022-09-17T16:46:50;3.63;;;0.82;;
71106;SDS011;58763;47.982;11.516;2022-09-17T16:49:16;4.60;;;0.80;;
71106;SDS011;58763;47.982;11.516;2022-09-17T16:51:41;2.50;;;0.90;;
71106;SDS011;58763;47.982;11.516;2022-09-17T16:54:07;1.67;;;0.73;;
71106;SDS011;58763;47.982;11.516;2022-09-17T16:56:32;3.45;;;1.10;;
71106;SDS011;58763;47.982;11.516;2022-09-17T16:58:58;2.85;;;1.13;;
71106;SDS011;58763;47.982;11.516;2022-09-17T17:01:23;3.28;;;1.05;;
71106;SDS011;58763;47.982;11.516;2022-09-17T17:03:49;2.63;;;0.80;;
71106;SDS011;58763;47.982;11.516;2022-09-17T17:06:16;3.42;;;0.77;;
71106;SDS011;58763;47.982;11.516;2022-09-17T17:08:43;1.23;;;0.60;;
71106;SDS011;58763;47.982;11.516;2022-09-17T17:11:09;1.92;;;0.50;;
71106;SDS011;58763;47.982;11.516;2022-09-17T17:13:34;1.55;;;0.60;;
71106;SDS011;58763;47.982;11.516;2022-09-17T17:16:07;1.75;;;0.75;;
71106;SDS011;58763;47.982;11.516;2022-09-17T17:18:34;1.23;;;0.60;;
71106;SDS011;58763;47.982;11.516;2022-09-17T17:21:03;2.38;;;0.43;;
71106;SDS011;58763;47.982;11.516;2022-09-17T17:23:30;0.68;;;0.35;;
71106;SDS011;58763;47.982;11.516;2022-09-17T17:25:55;0.85;;;0.40;;
71106;SDS011;58763;47.982;11.516;2022-09-17T17:28:21;1.05;;;0.47;;
71106;SDS011;58763;47.982;11.516;2022-09-17T17:30:46;2.63;;;0.70;;
71106;SDS011;58763;47.982;11.516;2022-09-17T17:33:12;1.77;;;0.70;;
71106;SDS011;58763;47.982;11.516;2022-09-17T17:35:38;1.23;;;0.47;;
71106;SDS011;58763;47.982;11.516;2022-09-17T17:38:04;1.02;;;0.50;;
71106;SDS011;58763;47.982;11.516;2022-09-17T17:40:29;3.17;;;0.60;;
71106;SDS011;58763;47.982;11.516;2022-09-17T17:42:55;0.85;;;0.40;;
71106;SDS011;58763;47.982;11.516;2022-09-17T17:45:20;12.68;;;6.05;;
71106;SDS011;58763;47.982;11.516;2022-09-17T17:47:47;1.90;;;0.70;;
71106;SDS011;58763;47.982;11.516;2022-09-17T17:50:12;1.35;;;0.60;;
71106;SDS011;58763;47.982;11.516;2022-09-17T17:52:40;1.10;;;0.57;;
71106;SDS011;58763;47.982;11.516;2022-09-17T17:55:08;3.40;;;0.60;;
71106;SDS011;58763;47.982;11.516;2022-09-17T17:57:34;1.15;;;0.50;;